sensor_id;sensor_type;location;lat;lon;timestamp;temperature;humidity
19968;DHT22;10145;49.152;9.282;2023-06-22T00:01:50;19.60;99.90
19968;DHT22;10145;49.152;9.282;2023-06-22T00:04:15;19.60;99.90
19968;DHT22;10145;49.152;9.282;2023-06-22T00:06:41;19.60;99.90
19968;DHT22;10145;49.152;9.282;2023-06-22T00:09:06;19.60;99.90
19968;DHT22;10145;49.152;9.282;2023-06-22T00:11:36;19.60;99.90
19968;DHT22;10145;49.152;9.282;2023-06-22T00:14:02;19.50;99.90
19968;DHT22;10145;49.152;9.282;2023-06-22T00:16:28;19.40;99.90
19968;DHT22;10145;49.152;9.282;2023-06-22T00:18:53;19.40;99.90
19968;DHT22;10145;49.152;9.282;2023-06-22T00:21:19;19.30;99.90
19968;DHT22;10145;49.152;9.282;2023-06-22T00:23:47;19.40;99.90
19968;DHT22;10145;49.152;9.282;2023-06-22T00:26:13;19.40;99.90
19968;DHT22;10145;49.152;9.282;2023-06-22T00:28:39;19.40;99.90
19968;DHT22;10145;49.152;9.282;2023-06-22T00:31:05;19.30;99.90
19968;DHT22;10145;49.152;9.282;2023-06-22T00:33:31;19.30;99.90
19968;DHT22;10145;49.152;9.282;2023-06-22T00:35:57;19.30;99.90
19968;DHT22;10145;49.152;9.282;2023-06-22T00:38:22;19.30;99.90
19968;DHT22;10145;49.152;9.282;2023-06-22T00:40:48;19.20;99.90
19968;DHT22;10145;49.152;9.282;2023-06-22T00:43:13;19.20;99.90
19968;DHT22;10145;49.152;9.282;2023-06-22T00:45:39;19.10;99.90
19968;DHT22;10145;49.152;9.282;2023-06-22T00:48:06;19.10;99.90
19968;DHT22;10145;49.152;9.282;2023-06-22T00:50:33;19.10;99.90
19968;DHT22;10145;49.152;9.282;2023-06-22T00:53:09;19.00;99.90
19968;DHT22;10145;49.152;9.282;2023-06-22T00:55:37;19.00;99.90
19968;DHT22;10145;49.152;9.282;2023-06-22T00:58:05;18.90;99.90
19968;DHT22;10145;49.152;9.282;2023-06-22T01:00:33;18.90;99.90
19968;DHT22;10145;49.152;9.282;2023-06-22T01:02:59;18.80;99.90
19968;DHT22;10145;49.152;9.282;2023-06-22T01:05:24;18.80;99.90
19968;DHT22;10145;49.152;9.282;2023-06-22T01:10:50;18.90;99.90
19968;DHT22;10145;49.152;9.282;2023-06-22T01:15:49;19.20;99.90
19968;DHT22;10145;49.152;9.282;2023-06-22T01:18:18;19.20;99.90
19968;DHT22;10145;49.152;9.282;2023-06-22T01:20:43;19.30;99.90
19968;DHT22;10145;49.152;9.282;2023-06-22T01:26:28;19.50;99.90
19968;DHT22;10145;49.152;9.282;2023-06-22T01:28:59;19.40;99.90
19968;DHT22;10145;49.152;9.282;2023-06-22T01:31:27;19.40;99.90
19968;DHT22;10145;49.152;9.282;2023-06-22T01:33:58;19.40;99.90
19968;DHT22;10145;49.152;9.282;2023-06-22T01:36:25;19.40;99.90
19968;DHT22;10145;49.152;9.282;2023-06-22T01:38:52;19.30;99.90
19968;DHT22;10145;49.152;9.282;2023-06-22T01:41:20;19.30;99.90
19968;DHT22;10145;49.152;9.282;2023-06-22T01:43:46;19.20;99.90
19968;DHT22;10145;49.152;9.282;2023-06-22T01:46:13;19.20;99.90
19968;DHT22;10145;49.152;9.282;2023-06-22T01:48:39;19.10;99.90
19968;DHT22;10145;49.152;9.282;2023-06-22T01:51:05;19.10;99.90
19968;DHT22;10145;49.152;9.282;2023-06-22T01:53:31;19.10;99.90
19968;DHT22;10145;49.152;9.282;2023-06-22T01:55:56;19.00;99.90
19968;DHT22;10145;49.152;9.282;2023-06-22T01:58:26;19.00;99.90
19968;DHT22;10145;49.152;9.282;2023-06-22T02:01:09;19.00;99.90
19968;DHT22;10145;49.152;9.282;2023-06-22T02:03:44;19.00;99.90
19968;DHT22;10145;49.152;9.282;2023-06-22T02:06:17;19.00;99.90
19968;DHT22;10145;49.152;9.282;2023-06-22T02:08:49;19.10;99.90
19968;DHT22;10145;49.152;9.282;2023-06-22T02:11:18;19.10;99.90
19968;DHT22;10145;49.152;9.282;2023-06-22T02:13:44;19.20;99.90
19968;DHT22;10145;49.152;9.282;2023-06-22T02:16:12;19.20;99.90
19968;DHT22;10145;49.152;9.282;2023-06-22T02:18:38;19.20;99.90
19968;DHT22;10145;49.152;9.282;2023-06-22T02:21:05;19.10;99.90
19968;DHT22;10145;49.152;9.282;2023-06-22T02:23:31;19.10;99.90
19968;DHT22;10145;49.152;9.282;2023-06-22T02:26:00;19.20;99.90
19968;DHT22;10145;49.152;9.282;2023-06-22T02:28:25;19.10;99.90
19968;DHT22;10145;49.152;9.282;2023-06-22T02:30:51;19.10;99.90
19968;DHT22;10145;49.152;9.282;2023-06-22T02:33:16;19.10;99.90
19968;DHT22;10145;49.152;9.282;2023-06-22T02:35:42;19.20;99.90
19968;DHT22;10145;49.152;9.282;2023-06-22T02:38:10;19.20;99.90
19968;DHT22;10145;49.152;9.282;2023-06-22T02:40:36;19.20;99.90
19968;DHT22;10145;49.152;9.282;2023-06-22T02:43:01;19.20;99.90
19968;DHT22;10145;49.152;9.282;2023-06-22T02:45:28;19.10;99.90
19968;DHT22;10145;49.152;9.282;2023-06-22T02:47:54;19.10;99.90
19968;DHT22;10145;49.152;9.282;2023-06-22T02:50:20;19.00;99.90
19968;DHT22;10145;49.152;9.282;2023-06-22T02:52:45;19.00;99.90
19968;DHT22;10145;49.152;9.282;2023-06-22T02:55:11;18.90;99.90
19968;DHT22;10145;49.152;9.282;2023-06-22T02:57:36;18.90;99.90
19968;DHT22;10145;49.152;9.282;2023-06-22T03:00:03;18.90;99.90
19968;DHT22;10145;49.152;9.282;2023-06-22T03:02:42;18.90;99.90
19968;DHT22;10145;49.152;9.282;2023-06-22T03:05:07;18.80;99.90
19968;DHT22;10145;49.152;9.282;2023-06-22T03:07:35;18.80;99.90
19968;DHT22;10145;49.152;9.282;2023-06-22T03:10:01;18.80;99.90
19968;DHT22;10145;49.152;9.282;2023-06-22T03:12:27;18.70;99.90
19968;DHT22;10145;49.152;9.282;2023-06-22T03:14:52;18.70;99.90
19968;DHT22;10145;49.152;9.282;2023-06-22T03:17:18;18.60;99.90
19968;DHT22;10145;49.152;9.282;2023-06-22T03:19:43;18.60;99.90
19968;DHT22;10145;49.152;9.282;2023-06-22T03:22:09;18.60;99.90
19968;DHT22;10145;49.152;9.282;2023-06-22T03:24:34;18.60;99.90
19968;DHT22;10145;49.152;9.282;2023-06-22T03:27:02;18.50;99.90
19968;DHT22;10145;49.152;9.282;2023-06-22T03:29:30;18.50;99.90
19968;DHT22;10145;49.152;9.282;2023-06-22T03:31:55;18.50;99.90
19968;DHT22;10145;49.152;9.282;2023-06-22T03:34:21;18.50;99.90
19968;DHT22;10145;49.152;9.282;2023-06-22T03:36:46;18.50;99.90
19968;DHT22;10145;49.152;9.282;2023-06-22T03:39:12;18.40;99.90
19968;DHT22;10145;49.152;9.282;2023-06-22T03:41:38;18.40;99.90
19968;DHT22;10145;49.152;9.282;2023-06-22T03:44:04;18.30;99.90
19968;DHT22;10145;49.152;9.282;2023-06-22T03:46:30;18.40;99.90
19968;DHT22;10145;49.152;9.282;2023-06-22T03:48:55;18.40;99.90
19968;DHT22;10145;49.152;9.282;2023-06-22T03:51:21;18.40;99.90
19968;DHT22;10145;49.152;9.282;2023-06-22T03:53:46;18.30;99.90
19968;DHT22;10145;49.152;9.282;2023-06-22T03:56:13;18.40;99.90
19968;DHT22;10145;49.152;9.282;2023-06-22T03:58:45;18.40;99.90
19968;DHT22;10145;49.152;9.282;2023-06-22T04:01:11;18.40;99.90
19968;DHT22;10145;49.152;9.282;2023-06-22T04:03:37;18.50;99.90
19968;DHT22;10145;49.152;9.282;2023-06-22T04:06:03;18.50;99.90
19968;DHT22;10145;49.152;9.282;2023-06-22T04:08:29;18.50;99.90
19968;DHT22;10145;49.152;9.282;2023-06-22T04:10:54;18.50;99.90
19968;DHT22;10145;49.152;9.282;2023-06-22T04:13:20;18.40;99.90
19968;DHT22;10145;49.152;9.282;2023-06-22T04:15:46;18.40;99.90
19968;DHT22;10145;49.152;9.282;2023-06-22T04:18:11;18.50;99.90
19968;DHT22;10145;49.152;9.282;2023-06-22T04:20:37;18.50;99.90
19968;DHT22;10145;49.152;9.282;2023-06-22T04:23:02;18.60;99.90
19968;DHT22;10145;49.152;9.282;2023-06-22T04:25:28;18.60;99.90
19968;DHT22;10145;49.152;9.282;2023-06-22T04:27:53;18.60;99.90
19968;DHT22;10145;49.152;9.282;2023-06-22T04:30:19;18.70;99.90
19968;DHT22;10145;49.152;9.282;2023-06-22T04:32:44;18.70;99.90
19968;DHT22;10145;49.152;9.282;2023-06-22T04:35:10;18.80;99.90
19968;DHT22;10145;49.152;9.282;2023-06-22T04:37:36;18.80;99.90
19968;DHT22;10145;49.152;9.282;2023-06-22T04:40:02;19.00;99.90
19968;DHT22;10145;49.152;9.282;2023-06-22T04:42:30;18.90;99.90
19968;DHT22;10145;49.152;9.282;2023-06-22T04:44:57;19.00;99.90
19968;DHT22;10145;49.152;9.282;2023-06-22T04:47:22;19.10;99.90
19968;DHT22;10145;49.152;9.282;2023-06-22T04:49:48;19.20;99.90
19968;DHT22;10145;49.152;9.282;2023-06-22T04:52:14;19.30;99.90
19968;DHT22;10145;49.152;9.282;2023-06-22T04:54:43;19.30;99.90
19968;DHT22;10145;49.152;9.282;2023-06-22T04:57:13;19.40;99.90
19968;DHT22;10145;49.152;9.282;2023-06-22T04:59:39;19.50;99.90
19968;DHT22;10145;49.152;9.282;2023-06-22T05:02:07;19.60;99.90
19968;DHT22;10145;49.152;9.282;2023-06-22T05:04:33;19.70;99.90
19968;DHT22;10145;49.152;9.282;2023-06-22T05:07:01;19.70;99.90
19968;DHT22;10145;49.152;9.282;2023-06-22T05:09:27;19.90;99.90
19968;DHT22;10145;49.152;9.282;2023-06-22T05:11:52;20.00;99.90
19968;DHT22;10145;49.152;9.282;2023-06-22T05:14:18;20.10;99.90
19968;DHT22;10145;49.152;9.282;2023-06-22T05:16:45;20.30;99.90
19968;DHT22;10145;49.152;9.282;2023-06-22T05:19:11;20.30;99.90
19968;DHT22;10145;49.152;9.282;2023-06-22T05:21:37;20.50;99.90
19968;DHT22;10145;49.152;9.282;2023-06-22T05:24:03;20.60;99.90
19968;DHT22;10145;49.152;9.282;2023-06-22T05:26:33;20.70;99.90
19968;DHT22;10145;49.152;9.282;2023-06-22T05:29:00;20.70;99.90
19968;DHT22;10145;49.152;9.282;2023-06-22T05:31:26;20.80;99.90
19968;DHT22;10145;49.152;9.282;2023-06-22T05:33:54;21.00;99.90
19968;DHT22;10145;49.152;9.282;2023-06-22T05:36:19;21.20;99.90
19968;DHT22;10145;49.152;9.282;2023-06-22T05:38:47;21.20;99.90
19968;DHT22;10145;49.152;9.282;2023-06-22T05:41:12;21.30;99.90
19968;DHT22;10145;49.152;9.282;2023-06-22T05:43:38;21.40;99.90
19968;DHT22;10145;49.152;9.282;2023-06-22T05:46:04;21.60;99.90
19968;DHT22;10145;49.152;9.282;2023-06-22T05:48:30;21.80;99.90
19968;DHT22;10145;49.152;9.282;2023-06-22T05:50:56;22.00;99.90
19968;DHT22;10145;49.152;9.282;2023-06-22T05:53:21;22.10;99.90
19968;DHT22;10145;49.152;9.282;2023-06-22T05:55:47;22.20;99.90
19968;DHT22;10145;49.152;9.282;2023-06-22T05:58:12;22.30;99.90
19968;DHT22;10145;49.152;9.282;2023-06-22T06:00:41;22.40;99.90
19968;DHT22;10145;49.152;9.282;2023-06-22T06:03:07;22.60;99.90
19968;DHT22;10145;49.152;9.282;2023-06-22T06:05:34;22.60;99.90
19968;DHT22;10145;49.152;9.282;2023-06-22T06:08:01;22.70;99.90
19968;DHT22;10145;49.152;9.282;2023-06-22T06:10:27;22.80;99.90
19968;DHT22;10145;49.152;9.282;2023-06-22T06:12:55;22.90;99.90
19968;DHT22;10145;49.152;9.282;2023-06-22T06:15:21;23.00;99.90
19968;DHT22;10145;49.152;9.282;2023-06-22T06:17:53;23.10;99.90
19968;DHT22;10145;49.152;9.282;2023-06-22T06:20:23;23.20;99.90
19968;DHT22;10145;49.152;9.282;2023-06-22T06:22:49;23.30;99.90
19968;DHT22;10145;49.152;9.282;2023-06-22T06:25:15;23.50;99.90
19968;DHT22;10145;49.152;9.282;2023-06-22T06:27:42;23.50;99.90
19968;DHT22;10145;49.152;9.282;2023-06-22T06:30:10;23.60;99.90
19968;DHT22;10145;49.152;9.282;2023-06-22T06:32:36;23.70;99.90
19968;DHT22;10145;49.152;9.282;2023-06-22T06:35:01;23.80;99.90
19968;DHT22;10145;49.152;9.282;2023-06-22T06:37:27;23.80;99.90
19968;DHT22;10145;49.152;9.282;2023-06-22T06:39:53;23.90;99.90
19968;DHT22;10145;49.152;9.282;2023-06-22T06:42:18;24.10;99.90
19968;DHT22;10145;49.152;9.282;2023-06-22T06:44:45;24.20;99.90
19968;DHT22;10145;49.152;9.282;2023-06-22T06:47:10;24.10;99.90
19968;DHT22;10145;49.152;9.282;2023-06-22T06:49:41;24.20;99.90
19968;DHT22;10145;49.152;9.282;2023-06-22T06:52:07;24.30;99.90
19968;DHT22;10145;49.152;9.282;2023-06-22T06:54:32;24.30;99.90
19968;DHT22;10145;49.152;9.282;2023-06-22T06:56:59;24.50;99.90
19968;DHT22;10145;49.152;9.282;2023-06-22T06:59:24;24.50;99.90
19968;DHT22;10145;49.152;9.282;2023-06-22T07:01:50;24.60;99.90
19968;DHT22;10145;49.152;9.282;2023-06-22T07:04:15;24.80;99.90
19968;DHT22;10145;49.152;9.282;2023-06-22T07:06:41;24.80;99.90
19968;DHT22;10145;49.152;9.282;2023-06-22T07:09:08;25.00;99.90
19968;DHT22;10145;49.152;9.282;2023-06-22T07:11:34;25.30;99.90
19968;DHT22;10145;49.152;9.282;2023-06-22T07:14:01;25.20;99.90
19968;DHT22;10145;49.152;9.282;2023-06-22T07:16:26;25.20;99.90
19968;DHT22;10145;49.152;9.282;2023-06-22T07:18:53;25.30;99.90
19968;DHT22;10145;49.152;9.282;2023-06-22T07:21:18;25.70;99.90
19968;DHT22;10145;49.152;9.282;2023-06-22T07:23:44;25.60;99.90
19968;DHT22;10145;49.152;9.282;2023-06-22T07:26:09;25.80;99.90
19968;DHT22;10145;49.152;9.282;2023-06-22T07:28:35;25.90;99.90
19968;DHT22;10145;49.152;9.282;2023-06-22T07:31:03;26.00;99.90
19968;DHT22;10145;49.152;9.282;2023-06-22T07:33:29;26.00;99.90
19968;DHT22;10145;49.152;9.282;2023-06-22T07:35:55;26.10;99.90
19968;DHT22;10145;49.152;9.282;2023-06-22T07:38:20;26.20;99.90
19968;DHT22;10145;49.152;9.282;2023-06-22T07:40:46;26.40;99.90
19968;DHT22;10145;49.152;9.282;2023-06-22T07:43:12;26.40;99.90
19968;DHT22;10145;49.152;9.282;2023-06-22T07:45:38;26.70;99.90
19968;DHT22;10145;49.152;9.282;2023-06-22T07:48:05;26.70;99.90
19968;DHT22;10145;49.152;9.282;2023-06-22T07:50:31;26.70;99.90
19968;DHT22;10145;49.152;9.282;2023-06-22T07:52:56;27.00;99.90
19968;DHT22;10145;49.152;9.282;2023-06-22T07:55:22;27.00;99.90
19968;DHT22;10145;49.152;9.282;2023-06-22T07:57:49;27.10;99.90
19968;DHT22;10145;49.152;9.282;2023-06-22T08:00:17;27.20;99.90
19968;DHT22;10145;49.152;9.282;2023-06-22T08:02:45;27.60;99.90
19968;DHT22;10145;49.152;9.282;2023-06-22T08:05:13;27.70;99.70
19968;DHT22;10145;49.152;9.282;2023-06-22T08:07:39;27.60;99.80
19968;DHT22;10145;49.152;9.282;2023-06-22T08:10:05;27.60;99.20
19968;DHT22;10145;49.152;9.282;2023-06-22T08:12:31;27.30;98.70
19968;DHT22;10145;49.152;9.282;2023-06-22T08:14:57;27.50;99.30
19968;DHT22;10145;49.152;9.282;2023-06-22T08:17:24;27.80;99.70
19968;DHT22;10145;49.152;9.282;2023-06-22T08:19:50;28.20;99.10
19968;DHT22;10145;49.152;9.282;2023-06-22T08:22:16;28.10;96.90
19968;DHT22;10145;49.152;9.282;2023-06-22T08:24:42;28.20;97.60
19968;DHT22;10145;49.152;9.282;2023-06-22T08:27:09;28.30;96.40
19968;DHT22;10145;49.152;9.282;2023-06-22T08:29:35;28.60;96.40
19968;DHT22;10145;49.152;9.282;2023-06-22T08:32:01;28.80;96.60
19968;DHT22;10145;49.152;9.282;2023-06-22T08:34:26;29.00;95.90
19968;DHT22;10145;49.152;9.282;2023-06-22T08:36:53;29.20;95.50
19968;DHT22;10145;49.152;9.282;2023-06-22T08:39:21;29.60;94.80
19968;DHT22;10145;49.152;9.282;2023-06-22T08:41:47;29.70;94.50
19968;DHT22;10145;49.152;9.282;2023-06-22T08:44:13;29.40;93.70
19968;DHT22;10145;49.152;9.282;2023-06-22T08:46:39;29.10;93.80
19968;DHT22;10145;49.152;9.282;2023-06-22T08:49:06;28.90;94.00
19968;DHT22;10145;49.152;9.282;2023-06-22T08:51:31;29.40;93.90
19968;DHT22;10145;49.152;9.282;2023-06-22T08:53:57;29.20;93.10
19968;DHT22;10145;49.152;9.282;2023-06-22T08:56:23;29.60;92.60
19968;DHT22;10145;49.152;9.282;2023-06-22T08:58:48;29.50;92.50
19968;DHT22;10145;49.152;9.282;2023-06-22T09:01:14;29.70;93.00
19968;DHT22;10145;49.152;9.282;2023-06-22T09:03:41;29.80;92.10
19968;DHT22;10145;49.152;9.282;2023-06-22T09:06:06;30.00;92.70
19968;DHT22;10145;49.152;9.282;2023-06-22T09:08:34;30.30;91.50
19968;DHT22;10145;49.152;9.282;2023-06-22T09:11:00;30.20;92.20
19968;DHT22;10145;49.152;9.282;2023-06-22T09:13:25;30.80;91.60
19968;DHT22;10145;49.152;9.282;2023-06-22T09:15:51;31.30;90.30
19968;DHT22;10145;49.152;9.282;2023-06-22T09:18:17;31.50;88.70
19968;DHT22;10145;49.152;9.282;2023-06-22T09:20:43;31.90;87.80
19968;DHT22;10145;49.152;9.282;2023-06-22T09:23:10;32.10;86.10
19968;DHT22;10145;49.152;9.282;2023-06-22T09:25:35;32.10;84.90
19968;DHT22;10145;49.152;9.282;2023-06-22T09:28:01;31.80;84.90
19968;DHT22;10145;49.152;9.282;2023-06-22T09:30:26;31.60;87.70
19968;DHT22;10145;49.152;9.282;2023-06-22T09:32:52;31.10;86.70
19968;DHT22;10145;49.152;9.282;2023-06-22T09:35:17;30.90;88.90
19968;DHT22;10145;49.152;9.282;2023-06-22T09:37:43;30.60;88.00
19968;DHT22;10145;49.152;9.282;2023-06-22T09:40:09;30.50;90.90
19968;DHT22;10145;49.152;9.282;2023-06-22T09:42:36;30.50;90.00
19968;DHT22;10145;49.152;9.282;2023-06-22T09:45:02;30.30;89.80
19968;DHT22;10145;49.152;9.282;2023-06-22T09:47:29;30.40;90.40
19968;DHT22;10145;49.152;9.282;2023-06-22T09:49:54;30.50;89.20
19968;DHT22;10145;49.152;9.282;2023-06-22T09:52:21;30.60;88.50
19968;DHT22;10145;49.152;9.282;2023-06-22T09:54:47;30.80;89.80
19968;DHT22;10145;49.152;9.282;2023-06-22T09:57:12;31.00;89.60
19968;DHT22;10145;49.152;9.282;2023-06-22T09:59:38;30.70;88.80
19968;DHT22;10145;49.152;9.282;2023-06-22T10:02:06;30.50;90.00
19968;DHT22;10145;49.152;9.282;2023-06-22T10:04:31;30.40;90.50
19968;DHT22;10145;49.152;9.282;2023-06-22T10:06:57;30.50;89.00
19968;DHT22;10145;49.152;9.282;2023-06-22T10:09:22;30.70;89.30
19968;DHT22;10145;49.152;9.282;2023-06-22T10:11:48;31.40;88.50
19968;DHT22;10145;49.152;9.282;2023-06-22T10:14:13;31.90;86.50
19968;DHT22;10145;49.152;9.282;2023-06-22T10:16:39;32.20;84.50
19968;DHT22;10145;49.152;9.282;2023-06-22T10:19:06;32.30;87.00
19968;DHT22;10145;49.152;9.282;2023-06-22T10:21:32;31.80;83.00
19968;DHT22;10145;49.152;9.282;2023-06-22T10:23:58;32.00;84.90
19968;DHT22;10145;49.152;9.282;2023-06-22T10:26:24;32.50;84.70
19968;DHT22;10145;49.152;9.282;2023-06-22T10:28:51;32.40;82.10
19968;DHT22;10145;49.152;9.282;2023-06-22T10:31:16;32.90;82.30
19968;DHT22;10145;49.152;9.282;2023-06-22T10:33:42;32.90;82.70
19968;DHT22;10145;49.152;9.282;2023-06-22T10:36:10;32.60;80.60
19968;DHT22;10145;49.152;9.282;2023-06-22T10:38:36;32.50;80.50
19968;DHT22;10145;49.152;9.282;2023-06-22T10:41:01;32.50;82.20
19968;DHT22;10145;49.152;9.282;2023-06-22T10:43:27;32.50;83.20
19968;DHT22;10145;49.152;9.282;2023-06-22T10:45:53;32.90;81.50
19968;DHT22;10145;49.152;9.282;2023-06-22T10:48:18;33.00;83.50
19968;DHT22;10145;49.152;9.282;2023-06-22T10:50:44;33.50;79.30
19968;DHT22;10145;49.152;9.282;2023-06-22T10:53:09;33.40;78.30
19968;DHT22;10145;49.152;9.282;2023-06-22T10:55:35;33.10;81.10
19968;DHT22;10145;49.152;9.282;2023-06-22T10:58:00;33.50;78.30
19968;DHT22;10145;49.152;9.282;2023-06-22T11:00:26;34.00;79.40
19968;DHT22;10145;49.152;9.282;2023-06-22T11:02:51;34.20;80.00
19968;DHT22;10145;49.152;9.282;2023-06-22T11:05:17;34.00;79.60
19968;DHT22;10145;49.152;9.282;2023-06-22T11:07:43;34.10;76.40
19968;DHT22;10145;49.152;9.282;2023-06-22T11:10:10;34.30;77.80
19968;DHT22;10145;49.152;9.282;2023-06-22T11:12:35;34.10;77.40
19968;DHT22;10145;49.152;9.282;2023-06-22T11:15:01;33.50;78.10
19968;DHT22;10145;49.152;9.282;2023-06-22T11:17:27;33.50;76.80
19968;DHT22;10145;49.152;9.282;2023-06-22T11:19:52;33.40;78.60
19968;DHT22;10145;49.152;9.282;2023-06-22T11:22:18;33.00;78.10
19968;DHT22;10145;49.152;9.282;2023-06-22T11:24:43;33.20;78.60
19968;DHT22;10145;49.152;9.282;2023-06-22T11:27:09;33.20;79.30
19968;DHT22;10145;49.152;9.282;2023-06-22T11:29:34;33.30;78.40
19968;DHT22;10145;49.152;9.282;2023-06-22T11:32:01;33.70;76.40
19968;DHT22;10145;49.152;9.282;2023-06-22T11:34:26;34.30;77.40
19968;DHT22;10145;49.152;9.282;2023-06-22T11:36:53;35.10;74.40
19968;DHT22;10145;49.152;9.282;2023-06-22T11:39:18;35.10;72.60
19968;DHT22;10145;49.152;9.282;2023-06-22T11:41:44;34.90;73.10
19968;DHT22;10145;49.152;9.282;2023-06-22T11:44:09;34.60;73.80
19968;DHT22;10145;49.152;9.282;2023-06-22T11:46:35;34.40;75.40
19968;DHT22;10145;49.152;9.282;2023-06-22T11:49:01;33.80;75.20
19968;DHT22;10145;49.152;9.282;2023-06-22T11:51:27;33.90;76.10
19968;DHT22;10145;49.152;9.282;2023-06-22T11:53:53;34.20;75.30
19968;DHT22;10145;49.152;9.282;2023-06-22T11:56:19;34.30;79.30
19968;DHT22;10145;49.152;9.282;2023-06-22T11:58:44;34.00;74.10
19968;DHT22;10145;49.152;9.282;2023-06-22T12:01:10;34.00;74.60
19968;DHT22;10145;49.152;9.282;2023-06-22T12:03:35;33.80;78.50
19968;DHT22;10145;49.152;9.282;2023-06-22T12:06:01;33.30;79.00
19968;DHT22;10145;49.152;9.282;2023-06-22T12:08:26;32.90;82.00
19968;DHT22;10145;49.152;9.282;2023-06-22T12:10:52;32.60;82.40
19968;DHT22;10145;49.152;9.282;2023-06-22T12:13:19;32.90;81.40
19968;DHT22;10145;49.152;9.282;2023-06-22T12:15:44;33.10;79.60
19968;DHT22;10145;49.152;9.282;2023-06-22T12:18:10;33.20;82.40
19968;DHT22;10145;49.152;9.282;2023-06-22T12:20:36;33.20;81.50
19968;DHT22;10145;49.152;9.282;2023-06-22T12:23:02;33.00;77.60
19968;DHT22;10145;49.152;9.282;2023-06-22T12:25:28;32.90;82.50
19968;DHT22;10145;49.152;9.282;2023-06-22T12:27:53;32.60;78.20
19968;DHT22;10145;49.152;9.282;2023-06-22T12:30:19;32.50;79.40
19968;DHT22;10145;49.152;9.282;2023-06-22T12:32:44;32.40;78.60
19968;DHT22;10145;49.152;9.282;2023-06-22T12:35:10;32.60;81.20
19968;DHT22;10145;49.152;9.282;2023-06-22T12:37:40;32.50;81.60
19968;DHT22;10145;49.152;9.282;2023-06-22T12:40:07;32.60;82.40
19968;DHT22;10145;49.152;9.282;2023-06-22T12:42:32;32.50;83.80
19968;DHT22;10145;49.152;9.282;2023-06-22T12:44:58;32.40;81.30
19968;DHT22;10145;49.152;9.282;2023-06-22T12:47:23;32.30;84.50
19968;DHT22;10145;49.152;9.282;2023-06-22T12:49:49;32.40;84.20
19968;DHT22;10145;49.152;9.282;2023-06-22T12:52:14;32.40;82.50
19968;DHT22;10145;49.152;9.282;2023-06-22T12:54:40;32.50;84.50
19968;DHT22;10145;49.152;9.282;2023-06-22T12:57:06;32.80;82.10
19968;DHT22;10145;49.152;9.282;2023-06-22T12:59:31;32.90;81.80
19968;DHT22;10145;49.152;9.282;2023-06-22T13:01:57;32.90;80.90
19968;DHT22;10145;49.152;9.282;2023-06-22T13:04:22;32.80;79.40
19968;DHT22;10145;49.152;9.282;2023-06-22T13:06:48;32.80;81.70
19968;DHT22;10145;49.152;9.282;2023-06-22T13:09:14;33.00;82.40
19968;DHT22;10145;49.152;9.282;2023-06-22T13:11:41;32.90;81.80
19968;DHT22;10145;49.152;9.282;2023-06-22T13:14:06;32.80;83.50
19968;DHT22;10145;49.152;9.282;2023-06-22T13:16:32;32.50;81.00
19968;DHT22;10145;49.152;9.282;2023-06-22T13:18:57;33.00;84.80
19968;DHT22;10145;49.152;9.282;2023-06-22T13:21:23;33.60;82.10
19968;DHT22;10145;49.152;9.282;2023-06-22T13:23:48;33.90;81.90
19968;DHT22;10145;49.152;9.282;2023-06-22T13:26:14;34.30;73.80
19968;DHT22;10145;49.152;9.282;2023-06-22T13:28:39;34.90;78.40
19968;DHT22;10145;49.152;9.282;2023-06-22T13:31:05;35.30;70.60
19968;DHT22;10145;49.152;9.282;2023-06-22T13:33:31;35.50;69.70
19968;DHT22;10145;49.152;9.282;2023-06-22T13:35:56;35.10;74.40
19968;DHT22;10145;49.152;9.282;2023-06-22T13:38:22;34.40;77.50
19968;DHT22;10145;49.152;9.282;2023-06-22T13:40:48;34.50;79.20
19968;DHT22;10145;49.152;9.282;2023-06-22T13:43:14;34.00;78.40
19968;DHT22;10145;49.152;9.282;2023-06-22T13:45:41;33.20;80.40
19968;DHT22;10145;49.152;9.282;2023-06-22T13:48:07;32.90;81.90
19968;DHT22;10145;49.152;9.282;2023-06-22T13:50:33;32.90;81.90
19968;DHT22;10145;49.152;9.282;2023-06-22T13:52:58;32.50;84.20
19968;DHT22;10145;49.152;9.282;2023-06-22T13:55:24;32.60;85.20
19968;DHT22;10145;49.152;9.282;2023-06-22T13:57:49;33.00;84.20
19968;DHT22;10145;49.152;9.282;2023-06-22T14:00:16;33.90;79.80
19968;DHT22;10145;49.152;9.282;2023-06-22T14:02:42;34.60;77.90
19968;DHT22;10145;49.152;9.282;2023-06-22T14:05:08;34.30;78.10
19968;DHT22;10145;49.152;9.282;2023-06-22T14:07:34;34.50;78.80
19968;DHT22;10145;49.152;9.282;2023-06-22T14:10:00;35.30;77.10
19968;DHT22;10145;49.152;9.282;2023-06-22T14:12:25;36.10;74.90
19968;DHT22;10145;49.152;9.282;2023-06-22T14:14:51;36.50;71.70
19968;DHT22;10145;49.152;9.282;2023-06-22T14:17:17;37.30;72.80
19968;DHT22;10145;49.152;9.282;2023-06-22T14:19:43;37.50;68.90
19968;DHT22;10145;49.152;9.282;2023-06-22T14:22:08;37.30;71.80
19968;DHT22;10145;49.152;9.282;2023-06-22T14:24:34;37.40;68.30
19968;DHT22;10145;49.152;9.282;2023-06-22T14:26:59;37.40;70.10
19968;DHT22;10145;49.152;9.282;2023-06-22T14:29:27;37.50;72.60
19968;DHT22;10145;49.152;9.282;2023-06-22T14:31:53;37.30;67.80
19968;DHT22;10145;49.152;9.282;2023-06-22T14:34:18;36.90;68.20
19968;DHT22;10145;49.152;9.282;2023-06-22T14:36:44;36.20;66.60
19968;DHT22;10145;49.152;9.282;2023-06-22T14:39:10;35.50;70.00
19968;DHT22;10145;49.152;9.282;2023-06-22T14:41:35;34.90;73.80
19968;DHT22;10145;49.152;9.282;2023-06-22T14:44:01;34.60;71.70
19968;DHT22;10145;49.152;9.282;2023-06-22T14:46:27;34.40;73.00
19968;DHT22;10145;49.152;9.282;2023-06-22T14:48:52;34.30;75.40
19968;DHT22;10145;49.152;9.282;2023-06-22T14:51:18;34.30;76.50
19968;DHT22;10145;49.152;9.282;2023-06-22T14:53:44;34.30;76.50
19968;DHT22;10145;49.152;9.282;2023-06-22T14:56:10;34.10;75.80
19968;DHT22;10145;49.152;9.282;2023-06-22T14:58:35;34.30;77.50
19968;DHT22;10145;49.152;9.282;2023-06-22T15:01:02;34.80;78.30
19968;DHT22;10145;49.152;9.282;2023-06-22T15:03:29;34.80;72.80
19968;DHT22;10145;49.152;9.282;2023-06-22T15:05:56;34.80;75.50
19968;DHT22;10145;49.152;9.282;2023-06-22T15:08:22;34.90;74.30
19968;DHT22;10145;49.152;9.282;2023-06-22T15:10:47;35.70;74.40
19968;DHT22;10145;49.152;9.282;2023-06-22T15:13:13;36.50;74.00
19968;DHT22;10145;49.152;9.282;2023-06-22T15:15:38;37.50;69.30
19968;DHT22;10145;49.152;9.282;2023-06-22T15:18:04;38.70;66.70
19968;DHT22;10145;49.152;9.282;2023-06-22T15:20:30;39.50;61.00
19968;DHT22;10145;49.152;9.282;2023-06-22T15:22:57;39.90;62.90
19968;DHT22;10145;49.152;9.282;2023-06-22T15:25:23;39.90;60.30
19968;DHT22;10145;49.152;9.282;2023-06-22T15:27:48;41.10;59.40
19968;DHT22;10145;49.152;9.282;2023-06-22T15:30:14;41.50;57.00
19968;DHT22;10145;49.152;9.282;2023-06-22T15:32:43;41.20;57.00